Time;durP1;ratioP1;P1;durP2;ratioP2;P2;SDS_P1;SDS_P2;PMS_P1;PMS_P2;Temp;Humidity;BMP_temperature;BMP_pressure;BME280_temperature;BME280_humidity;BME280_pressure;Samples;Min_cycle;Max_cycle;Signal;HPM_P1;HPM_P2
2021/10/12 00:00:29;;;;;;;19.43;9.03;;;8.90;99.90;;;;;;4965056;28;20653;-61
2021/10/12 00:02:55;;;;;;;19.77;10.23;;;8.90;99.90;;;;;;4967850;28;20182;-60
2021/10/12 00:05:20;;;;;;;21.00;9.97;;;8.90;99.90;;;;;;4968995;28;20752;-60
2021/10/12 00:07:46;;;;;;;16.90;9.40;;;8.90;99.90;;;;;;4966793;28;20562;-62
2021/10/12 00:10:13;;;;;;;16.93;9.20;;;8.80;99.90;;;;;;4967769;28;20260;-60
2021/10/12 00:12:39;;;;;;;19.23;9.73;;;8.90;99.90;;;;;;4966461;28;20440;-60
2021/10/12 00:15:05;;;;;;;20.43;10.10;;;8.80;99.90;;;;;;4968353;28;20429;-60
2021/10/12 00:17:31;;;;;;;13.97;9.20;;;8.80;99.90;;;;;;4968117;28;20213;-61
2021/10/12 00:19:57;;;;;;;16.27;9.20;;;8.80;99.90;;;;;;4966632;28;20470;-60
2021/10/12 00:22:22;;;;;;;15.50;8.60;;;8.80;99.90;;;;;;4969958;28;20166;-60
2021/10/12 00:24:48;;;;;;;16.50;8.27;;;8.70;99.90;;;;;;4968237;28;20198;-60
2021/10/12 00:27:14;;;;;;;15.60;8.30;;;8.70;99.90;;;;;;4964857;28;20178;-60
2021/10/12 00:29:39;;;;;;;15.20;9.20;;;8.70;99.90;;;;;;4963759;28;20205;-60
2021/10/12 00:32:05;;;;;;;17.53;9.37;;;8.60;99.90;;;;;;4962076;28;20198;-60
2021/10/12 00:34:31;;;;;;;19.10;8.90;;;8.60;99.90;;;;;;4965642;28;20185;-61
2021/10/12 00:36:57;;;;;;;19.37;8.60;;;8.60;99.90;;;;;;4965092;28;21127;-61
2021/10/12 00:39:22;;;;;;;16.33;9.63;;;8.50;99.90;;;;;;4968293;28;20489;-62
2021/10/12 00:41:48;;;;;;;19.50;9.10;;;8.50;99.90;;;;;;4965675;28;20273;-60
2021/10/12 00:44:14;;;;;;;18.53;9.07;;;8.50;99.90;;;;;;4963095;28;20173;-60
2021/10/12 00:46:40;;;;;;;15.17;8.80;;;8.40;99.90;;;;;;4966158;28;20249;-60
2021/10/12 00:49:06;;;;;;;16.63;9.00;;;8.40;99.90;;;;;;4968088;28;20201;-61
2021/10/12 00:51:32;;;;;;;16.23;9.20;;;8.30;99.90;;;;;;4967722;28;20494;-60
2021/10/12 00:53:57;;;;;;;16.73;9.10;;;8.30;99.90;;;;;;4966632;28;20468;-60
2021/10/12 00:56:23;;;;;;;16.70;8.70;;;8.20;99.90;;;;;;4962814;28;20447;-59
2021/10/12 00:58:49;;;;;;;14.60;8.70;;;8.20;99.90;;;;;;4961645;28;20276;-60
2021/10/12 01:01:15;;;;;;;17.03;8.27;;;8.10;99.90;;;;;;4960527;28;20288;-61
2021/10/12 01:03:41;;;;;;;16.57;8.80;;;8.10;99.90;;;;;;4951370;28;20189;-61
2021/10/12 01:06:08;;;;;;;15.60;8.63;;;8.00;99.90;;;;;;4951112;28;20426;-60
2021/10/12 01:08:33;;;;;;;16.30;8.00;;;8.00;99.90;;;;;;4974329;28;20185;-61
2021/10/12 01:10:59;;;;;;;12.77;8.73;;;7.90;99.90;;;;;;4965038;28;20536;-61
2021/10/12 01:13:26;;;;;;;16.57;9.07;;;7.90;99.90;;;;;;4956351;28;20197;-61
2021/10/12 01:15:53;;;;;;;20.40;10.70;;;7.90;99.90;;;;;;4956605;28;20430;-60
2021/10/12 01:18:19;;;;;;;16.07;8.87;;;7.90;99.90;;;;;;4954581;28;20421;-60
2021/10/12 01:20:45;;;;;;;17.73;8.60;;;7.90;99.90;;;;;;4966227;28;20510;-61
2021/10/12 01:23:12;;;;;;;16.30;8.53;;;7.90;99.90;;;;;;4954292;28;20808;-60
2021/10/12 01:25:38;;;;;;;19.67;8.90;;;7.90;99.90;;;;;;4959574;28;20428;-59
2021/10/12 01:28:05;;;;;;;18.10;8.70;;;7.80;99.90;;;;;;4965414;28;20417;-60
2021/10/12 01:30:31;;;;;;;16.20;8.77;;;7.80;99.90;;;;;;4955834;28;20485;-60
2021/10/12 01:32:56;;;;;;;19.30;9.27;;;7.80;99.90;;;;;;4963401;28;20452;-60
2021/10/12 01:35:22;;;;;;;16.30;8.67;;;7.80;99.90;;;;;;4965816;28;20201;-60
2021/10/12 01:37:48;;;;;;;16.17;8.40;;;7.80;99.90;;;;;;4954454;28;20804;-60
2021/10/12 01:40:15;;;;;;;20.83;9.37;;;7.80;99.90;;;;;;4970785;28;20213;-60
2021/10/12 01:42:41;;;;;;;12.00;8.00;;;7.80;99.90;;;;;;4968634;28;20534;-60
2021/10/12 01:45:09;;;;;;;18.43;8.70;;;7.80;99.90;;;;;;4962120;28;20433;-60
2021/10/12 01:47:34;;;;;;;17.30;8.50;;;7.80;99.90;;;;;;4956290;28;20427;-60
2021/10/12 01:50:01;;;;;;;16.20;9.43;;;7.80;99.90;;;;;;4957199;28;20425;-60
2021/10/12 01:52:26;;;;;;;19.13;9.47;;;7.70;99.90;;;;;;4955588;28;20425;-61
2021/10/12 01:54:52;;;;;;;18.80;8.20;;;7.80;99.90;;;;;;4966468;28;20428;-60
2021/10/12 01:57:18;;;;;;;17.23;8.37;;;7.80;99.90;;;;;;4974134;28;20922;-60
2021/10/12 01:59:44;;;;;;;15.47;9.47;;;7.80;99.90;;;;;;4966347;28;20170;-60
2021/10/12 02:02:10;;;;;;;12.07;7.87;;;7.80;99.90;;;;;;4968060;28;20464;-61
2021/10/12 02:04:36;;;;;;;18.10;8.90;;;7.80;99.90;;;;;;4967322;28;20420;-60
2021/10/12 02:07:02;;;;;;;19.07;9.60;;;7.80;99.90;;;;;;4958403;28;20406;-60
2021/10/12 02:09:30;;;;;;;16.90;9.47;;;7.80;99.90;;;;;;4963923;28;20182;-61
2021/10/12 02:11:55;;;;;;;14.43;9.00;;;7.80;99.90;;;;;;4987830;28;20440;-60
2021/10/12 02:14:21;;;;;;;20.83;8.90;;;7.80;99.90;;;;;;4967054;28;20771;-62
2021/10/12 02:16:47;;;;;;;19.40;9.27;;;7.80;99.90;;;;;;4960903;28;20200;-61
2021/10/12 02:19:13;;;;;;;13.13;8.83;;;7.80;99.90;;;;;;4965004;28;20185;-61
2021/10/12 02:21:38;;;;;;;16.37;9.53;;;7.90;99.90;;;;;;4960984;28;20210;-61
2021/10/12 02:24:04;;;;;;;17.73;9.30;;;7.90;99.90;;;;;;4954266;28;20171;-60
2021/10/12 02:26:30;;;;;;;16.20;9.37;;;7.90;99.90;;;;;;4955652;28;20170;-60
2021/10/12 02:28:56;;;;;;;18.43;8.73;;;7.90;99.90;;;;;;4953946;28;20445;-61
2021/10/12 02:31:22;;;;;;;18.50;8.63;;;7.90;99.90;;;;;;4954750;28;20268;-60
2021/10/12 02:33:47;;;;;;;16.80;9.30;;;7.90;99.90;;;;;;4972231;28;20228;-60
2021/10/12 02:36:13;;;;;;;17.43;8.67;;;7.90;99.90;;;;;;4969213;28;20433;-61
2021/10/12 02:38:40;;;;;;;19.50;9.90;;;7.90;99.90;;;;;;4967570;28;20182;-60
2021/10/12 02:41:06;;;;;;;16.10;9.03;;;7.90;99.90;;;;;;4954031;28;20205;-60
2021/10/12 02:43:32;;;;;;;15.60;8.80;;;7.90;99.90;;;;;;4978901;28;20417;-60
2021/10/12 02:45:58;;;;;;;16.77;8.77;;;7.90;99.90;;;;;;4955875;28;20480;-60
2021/10/12 02:48:23;;;;;;;17.53;8.87;;;7.90;99.90;;;;;;4955078;28;20175;-60
2021/10/12 02:50:49;;;;;;;23.43;9.73;;;7.90;99.90;;;;;;4958392;28;20201;-60
2021/10/12 02:53:15;;;;;;;14.00;8.13;;;7.90;99.90;;;;;;4964454;28;20237;-60
2021/10/12 02:55:41;;;;;;;14.40;7.90;;;7.90;99.90;;;;;;4953371;28;20602;-60
2021/10/12 02:58:07;;;;;;;15.70;9.63;;;7.90;99.90;;;;;;4957107;28;20534;-60
2021/10/12 03:00:33;;;;;;;21.07;11.23;;;7.90;99.90;;;;;;4959686;28;20465;-60
2021/10/12 03:02:59;;;;;;;18.23;10.30;;;7.90;99.90;;;;;;4954247;28;20433;-60
2021/10/12 03:05:25;;;;;;;19.03;8.80;;;7.90;99.90;;;;;;4952780;28;20441;-60
2021/10/12 03:07:51;;;;;;;19.40;10.10;;;7.90;99.90;;;;;;4971257;28;20244;-60
2021/10/12 03:10:16;;;;;;;17.63;9.40;;;7.90;99.90;;;;;;4969072;28;20674;-60
2021/10/12 03:12:42;;;;;;;16.20;8.87;;;7.90;99.90;;;;;;4954967;28;20236;-60
2021/10/12 03:15:08;;;;;;;16.03;8.33;;;7.90;99.90;;;;;;4963547;28;20197;-60
2021/10/12 03:17:34;;;;;;;13.80;7.63;;;7.90;99.90;;;;;;4965773;28;20658;-60
2021/10/12 03:20:00;;;;;;;16.33;8.97;;;7.90;99.90;;;;;;4965387;28;20434;-59
2021/10/12 03:22:27;;;;;;;16.13;8.60;;;7.90;99.90;;;;;;4969104;28;20249;-60
2021/10/12 03:24:54;;;;;;;14.10;8.63;;;7.90;99.90;;;;;;4984626;28;20427;-60
2021/10/12 03:27:20;;;;;;;23.27;10.10;;;7.90;99.90;;;;;;4970986;28;20420;-60
2021/10/12 03:29:45;;;;;;;18.10;9.13;;;7.90;99.90;;;;;;4965086;28;20429;-61
2021/10/12 03:32:11;;;;;;;20.70;10.10;;;7.90;99.90;;;;;;4957454;28;20479;-61
2021/10/12 03:34:37;;;;;;;14.73;8.83;;;7.90;99.90;;;;;;4965976;28;20181;-60
2021/10/12 03:37:03;;;;;;;19.03;9.60;;;7.90;99.90;;;;;;4984105;28;20240;-61
2021/10/12 03:39:30;;;;;;;20.60;10.00;;;7.90;99.90;;;;;;4959210;28;20824;-61
2021/10/12 03:41:56;;;;;;;18.40;8.50;;;7.90;99.90;;;;;;4960769;28;20464;-61
2021/10/12 03:44:23;;;;;;;14.67;9.07;;;7.90;99.90;;;;;;4953213;28;20866;-60
2021/10/12 03:46:50;;;;;;;15.13;9.20;;;8.00;99.90;;;;;;4959745;28;20167;-60
2021/10/12 03:49:16;;;;;;;16.10;8.90;;;8.00;99.90;;;;;;4957906;28;20831;-60
2021/10/12 03:51:45;;;;;;;15.33;9.03;;;8.00;99.90;;;;;;4963925;28;20460;-60
2021/10/12 03:54:11;;;;;;;20.07;10.43;;;8.00;99.90;;;;;;4962260;28;21309;-60
2021/10/12 03:56:37;;;;;;;19.30;9.50;;;7.90;99.90;;;;;;4964010;28;20433;-60
2021/10/12 03:59:02;;;;;;;15.20;9.13;;;7.90;99.90;;;;;;4966066;28;20446;-58
2021/10/12 04:01:28;;;;;;;13.37;8.43;;;7.90;99.90;;;;;;4959305;28;20233;-58
2021/10/12 04:03:54;;;;;;;24.43;8.77;;;7.90;99.90;;;;;;4964932;28;20173;-56
2021/10/12 04:06:20;;;;;;;18.90;9.00;;;7.90;99.90;;;;;;4957865;28;20173;-57
2021/10/12 04:08:46;;;;;;;20.57;9.50;;;7.90;99.90;;;;;;4953956;28;20496;-57
2021/10/12 04:11:11;;;;;;;14.50;8.90;;;7.90;99.90;;;;;;4967037;28;20464;-58
2021/10/12 04:13:37;;;;;;;20.30;9.00;;;7.90;99.90;;;;;;4964466;28;20646;-57
2021/10/12 04:16:03;;;;;;;14.70;7.93;;;7.90;99.90;;;;;;4968126;28;20606;-58
2021/10/12 04:18:29;;;;;;;19.53;10.57;;;7.90;99.90;;;;;;4966974;28;20174;-61
2021/10/12 04:20:54;;;;;;;16.03;9.60;;;7.90;99.90;;;;;;4953530;28;20854;-60
2021/10/12 04:23:20;;;;;;;19.10;9.60;;;7.80;99.90;;;;;;4959943;28;20220;-61
2021/10/12 04:25:47;;;;;;;16.07;9.03;;;7.80;99.90;;;;;;4964399;28;20527;-61
2021/10/12 04:28:13;;;;;;;17.20;9.47;;;7.80;99.90;;;;;;4957984;28;20414;-59
2021/10/12 04:30:40;;;;;;;22.20;9.13;;;7.80;99.90;;;;;;4956367;28;20453;-59
2021/10/12 04:33:06;;;;;;;22.13;9.80;;;7.80;99.90;;;;;;4955473;28;20422;-59
2021/10/12 04:35:32;;;;;;;20.00;9.80;;;7.80;99.90;;;;;;4959591;28;20484;-59
2021/10/12 04:37:58;;;;;;;22.27;9.90;;;7.80;99.90;;;;;;4963180;28;21060;-60
2021/10/12 04:40:25;;;;;;;19.47;10.20;;;7.80;99.90;;;;;;4960805;28;20204;-60
2021/10/12 04:42:51;;;;;;;23.80;10.73;;;7.70;99.90;;;;;;4954573;28;20194;-61
2021/10/12 04:45:17;;;;;;;19.17;9.67;;;7.70;99.90;;;;;;4966280;28;20434;-62
2021/10/12 04:47:43;;;;;;;15.03;8.93;;;7.70;99.90;;;;;;4962131;28;20425;-61
2021/10/12 04:50:09;;;;;;;18.10;9.13;;;7.70;99.90;;;;;;4967448;28;20689;-61
2021/10/12 04:52:35;;;;;;;18.33;9.60;;;7.70;99.90;;;;;;4969593;28;20178;-62
2021/10/12 04:55:01;;;;;;;20.40;9.80;;;7.70;99.90;;;;;;4966084;28;20452;-62
2021/10/12 04:57:27;;;;;;;19.43;9.67;;;7.70;99.90;;;;;;4969268;28;20508;-62
2021/10/12 04:59:52;;;;;;;20.80;9.67;;;7.70;99.90;;;;;;4985764;28;20174;-62
2021/10/12 05:02:19;;;;;;;21.67;9.67;;;7.60;99.90;;;;;;4971232;28;20198;-61
2021/10/12 05:04:46;;;;;;;16.77;10.37;;;7.60;99.90;;;;;;4967632;28;20178;-61
2021/10/12 05:07:12;;;;;;;17.37;9.80;;;7.60;99.90;;;;;;4969861;28;20416;-61
2021/10/12 05:09:38;;;;;;;20.13;11.20;;;7.60;99.90;;;;;;4965349;28;20426;-61
2021/10/12 05:12:03;;;;;;;18.93;8.83;;;7.60;99.90;;;;;;4959706;28;20197;-62
2021/10/12 05:14:30;;;;;;;19.93;9.80;;;7.60;99.90;;;;;;4969532;28;20684;-61
2021/10/12 05:16:59;;;;;;;15.53;9.77;;;7.60;99.90;;;;;;4964148;28;20517;-61
2021/10/12 05:19:25;;;;;;;16.93;10.53;;;7.60;99.90;;;;;;4962822;28;20528;-62
2021/10/12 05:21:50;;;;;;;21.53;10.30;;;7.50;99.90;;;;;;4951280;28;20508;-61
2021/10/12 05:24:16;;;;;;;16.20;9.03;;;7.60;99.90;;;;;;4965548;28;20426;-61
2021/10/12 05:26:42;;;;;;;20.93;9.33;;;7.50;99.90;;;;;;4972255;28;20649;-61
2021/10/12 05:29:11;;;;;;;33.20;11.33;;;7.50;99.90;;;;;;4967080;28;20169;-61
2021/10/12 05:31:36;;;;;;;28.50;10.20;;;7.50;99.90;;;;;;4975120;28;20465;-62
2021/10/12 05:34:02;;;;;;;19.50;9.67;;;7.50;99.90;;;;;;4968201;28;20434;-62
2021/10/12 05:36:28;;;;;;;23.17;10.87;;;7.50;99.90;;;;;;4972903;28;20183;-61
2021/10/12 05:38:53;;;;;;;23.30;10.43;;;7.50;99.90;;;;;;4960754;28;20551;-61
2021/10/12 05:41:19;;;;;;;17.10;9.07;;;7.50;99.90;;;;;;4989195;28;20550;-61
2021/10/12 05:43:46;;;;;;;22.67;10.77;;;7.50;99.90;;;;;;4978165;28;20480;-61
2021/10/12 05:46:12;;;;;;;23.30;10.30;;;7.50;99.90;;;;;;4953048;28;20174;-62
2021/10/12 05:48:38;;;;;;;20.53;10.80;;;7.60;99.90;;;;;;4970644;28;20439;-61
2021/10/12 05:51:05;;;;;;;18.50;11.47;;;7.60;99.90;;;;;;4956426;28;20844;-61
2021/10/12 05:53:51;;;;;;;22.63;9.63;;;7.60;99.90;;;;;;4965300;28;20179;-60
2021/10/12 05:57:05;;;;;;;21.90;10.40;;;7.50;99.90;;;;;;4972984;28;20434;-61
2021/10/12 05:59:05;;;;;;;17.13;9.13;;;7.50;99.90;;;;;;4962495;28;20413;-61
2021/10/12 06:01:31;;;;;;;14.97;9.23;;;7.50;99.90;;;;;;4965292;28;20519;-61
2021/10/12 06:03:57;;;;;;;20.60;9.10;;;7.50;99.90;;;;;;4965814;28;20175;-61
2021/10/12 06:06:22;;;;;;;18.40;9.23;;;7.40;99.90;;;;;;4979306;28;20682;-61
2021/10/12 06:08:48;;;;;;;18.33;9.00;;;7.40;99.90;;;;;;4985312;28;20187;-62
2021/10/12 06:11:14;;;;;;;17.97;9.27;;;7.40;99.90;;;;;;4974675;28;20195;-62
2021/10/12 06:13:40;;;;;;;15.70;9.33;;;7.40;99.90;;;;;;4952514;28;20718;-61
2021/10/12 06:16:06;;;;;;;21.00;10.00;;;7.40;99.90;;;;;;4965985;28;20184;-61
2021/10/12 06:18:32;;;;;;;19.17;9.77;;;7.40;99.90;;;;;;4966918;28;20479;-63
2021/10/12 06:20:58;;;;;;;17.50;9.97;;;7.40;99.90;;;;;;4983947;28;20469;-61
2021/10/12 06:23:24;;;;;;;21.40;11.47;;;7.40;99.90;;;;;;4966604;28;20509;-61
2021/10/12 06:25:53;;;;;;;29.63;13.80;;;7.50;99.90;;;;;;4966702;28;20262;-61
2021/10/12 06:28:20;;;;;;;25.53;12.67;;;7.50;99.90;;;;;;4953211;28;20440;-61
2021/10/12 06:30:46;;;;;;;26.23;11.93;;;7.60;99.90;;;;;;4966732;28;20722;-62
2021/10/12 06:33:12;;;;;;;24.53;11.17;;;7.60;99.90;;;;;;4967963;28;20938;-61
2021/10/12 06:35:38;;;;;;;20.00;11.13;;;7.70;99.90;;;;;;4968543;28;20185;-61
2021/10/12 06:38:05;;;;;;;18.67;10.87;;;7.70;99.90;;;;;;4975152;28;20871;-61
2021/10/12 06:40:32;;;;;;;25.63;9.80;;;7.70;99.90;;;;;;4961019;28;20205;-61
2021/10/12 06:42:58;;;;;;;26.50;10.53;;;7.80;99.90;;;;;;4977079;28;20437;-62
2021/10/12 06:45:24;;;;;;;26.60;11.87;;;7.80;99.90;;;;;;4956034;28;20504;-57
2021/10/12 06:47:50;;;;;;;19.37;10.50;;;7.80;99.90;;;;;;4968445;28;22076;-60
2021/10/12 06:50:17;;;;;;;31.83;13.43;;;7.80;99.90;;;;;;4956599;28;20261;-60
2021/10/12 06:52:43;;;;;;;28.67;15.30;;;7.90;99.90;;;;;;4967133;28;20496;-62
2021/10/12 06:55:11;;;;;;;31.37;16.30;;;7.90;99.90;;;;;;4963284;28;20918;-59
2021/10/12 06:57:38;;;;;;;32.00;15.07;;;7.90;99.90;;;;;;4966631;28;20862;-59
2021/10/12 07:00:05;;;;;;;30.03;14.60;;;8.00;99.90;;;;;;4973276;28;20497;-59
2021/10/12 07:02:31;;;;;;;31.13;15.03;;;8.00;99.90;;;;;;4953833;28;20434;-59
2021/10/12 07:04:56;;;;;;;30.67;15.03;;;8.00;99.90;;;;;;4951909;29;20502;-59
2021/10/12 07:07:22;;;;;;;31.73;14.70;;;8.10;99.90;;;;;;4952092;29;20411;-59
2021/10/12 07:09:48;;;;;;;24.10;14.70;;;8.10;99.90;;;;;;4955498;28;20172;-59
2021/10/12 07:12:13;;;;;;;33.13;15.47;;;8.10;99.90;;;;;;4957448;28;20209;-60
2021/10/12 07:14:39;;;;;;;35.70;16.17;;;8.10;99.90;;;;;;4953604;29;20674;-59
2021/10/12 07:17:05;;;;;;;27.17;15.83;;;8.20;99.90;;;;;;4963127;28;20589;-59
2021/10/12 07:19:30;;;;;;;42.93;17.70;;;8.20;99.90;;;;;;4970030;28;20192;-59
2021/10/12 07:21:56;;;;;;;34.60;17.30;;;8.20;99.90;;;;;;4971610;28;20198;-59
2021/10/12 07:24:22;;;;;;;31.27;17.13;;;8.20;99.90;;;;;;4970168;28;20196;-59
2021/10/12 07:26:49;;;;;;;34.23;17.37;;;8.20;99.90;;;;;;4969421;28;20174;-59
2021/10/12 07:29:16;;;;;;;33.60;17.30;;;8.30;99.90;;;;;;4963916;28;20414;-60
2021/10/12 07:31:42;;;;;;;29.80;16.90;;;8.30;99.90;;;;;;4953367;28;20493;-60
2021/10/12 07:34:08;;;;;;;33.20;17.30;;;8.40;99.90;;;;;;4953555;29;20429;-59
2021/10/12 07:36:35;;;;;;;41.03;17.37;;;8.40;99.90;;;;;;4963426;28;20429;-59
2021/10/12 07:39:00;;;;;;;31.90;18.17;;;8.40;99.90;;;;;;4972232;28;20417;-59
2021/10/12 07:41:27;;;;;;;32.53;16.67;;;8.40;99.90;;;;;;4971144;28;20452;-59
2021/10/12 07:43:53;;;;;;;32.43;17.00;;;8.50;99.90;;;;;;4962314;28;20181;-59
2021/10/12 07:46:18;;;;;;;31.47;16.07;;;8.50;99.90;;;;;;4977822;28;20813;-60
2021/10/12 07:48:44;;;;;;;28.03;15.70;;;8.50;99.90;;;;;;4978715;28;20642;-59
2021/10/12 07:51:09;;;;;;;30.83;13.77;;;8.50;99.90;;;;;;4967765;28;20213;-59
2021/10/12 07:53:37;;;;;;;28.97;14.30;;;8.50;99.90;;;;;;4959670;28;20702;-59
2021/10/12 07:56:08;;;;;;;22.90;13.67;;;8.50;99.90;;;;;;4972023;28;20356;-59
2021/10/12 07:58:33;;;;;;;30.73;13.73;;;8.50;99.90;;;;;;4966069;28;20854;-59
2021/10/12 08:00:59;;;;;;;25.43;12.93;;;8.50;99.90;;;;;;4960065;28;21106;-58
2021/10/12 08:03:25;;;;;;;29.77;14.63;;;8.50;99.90;;;;;;4953026;28;20560;-60
2021/10/12 08:05:50;;;;;;;29.67;16.23;;;8.50;99.90;;;;;;4952253;29;20182;-59
2021/10/12 08:08:16;;;;;;;35.20;16.27;;;8.50;99.90;;;;;;4952583;28;20166;-59
2021/10/12 08:10:42;;;;;;;32.40;17.30;;;8.40;99.90;;;;;;4952460;28;20206;-59
2021/10/12 08:13:11;;;;;;;27.30;15.07;;;8.40;99.90;;;;;;4955168;28;20613;-59
2021/10/12 08:15:40;;;;;;;28.63;15.67;;;8.50;99.90;;;;;;4951757;28;20691;-61
2021/10/12 08:18:05;;;;;;;28.97;15.47;;;8.50;99.90;;;;;;4954651;28;20410;-59
2021/10/12 08:20:31;;;;;;;30.00;15.13;;;8.50;99.90;;;;;;4971046;28;20456;-60
2021/10/12 08:22:57;;;;;;;30.70;15.70;;;8.60;99.90;;;;;;4970443;28;20545;-59
2021/10/12 08:25:24;;;;;;;27.00;14.43;;;8.60;99.90;;;;;;4969129;28;20185;-59
2021/10/12 08:27:49;;;;;;;36.90;17.37;;;8.60;99.90;;;;;;4967655;28;20713;-59
2021/10/12 08:30:15;;;;;;;28.60;15.47;;;8.60;99.90;;;;;;4952207;29;20422;-59
2021/10/12 08:32:43;;;;;;;31.63;15.40;;;8.60;99.90;;;;;;4952024;28;20610;-59
2021/10/12 08:35:10;;;;;;;25.87;13.33;;;8.60;99.90;;;;;;4967367;28;20188;-59
2021/10/12 08:37:37;;;;;;;28.60;13.80;;;8.60;99.90;;;;;;4970075;28;20418;-60
2021/10/12 08:40:08;;;;;;;25.20;12.40;;;8.50;99.90;;;;;;4971519;28;20482;-60
2021/10/12 08:42:37;;;;;;;20.90;11.83;;;8.60;99.90;;;;;;4965286;28;20517;-60
2021/10/12 08:45:06;;;;;;;16.80;10.73;;;8.60;99.90;;;;;;4966017;28;20760;-59
2021/10/12 08:47:33;;;;;;;21.93;9.10;;;8.60;99.90;;;;;;4965532;28;20503;-59
2021/10/12 08:50:00;;;;;;;14.07;8.87;;;8.60;99.90;;;;;;4971500;28;20440;-60
2021/10/12 08:52:26;;;;;;;22.60;9.73;;;8.60;99.90;;;;;;4970569;28;20448;-59
2021/10/12 08:54:54;;;;;;;16.10;8.37;;;8.70;99.90;;;;;;4965870;28;20511;-59
2021/10/12 08:57:41;;;;;;;12.90;7.23;;;8.70;99.90;;;;;;4965827;28;20189;-60
2021/10/12 09:00:19;;;;;;;12.53;6.90;;;8.70;99.90;;;;;;4958394;28;20440;-59
2021/10/12 09:05:56;;;;;;;12.53;6.90;;;8.70;99.90;;;;;;4980041;28;20426;-59
2021/10/12 09:08:35;;;;;;;11.17;7.57;;;8.60;99.90;;;;;;4961101;28;20453;-60
2021/10/12 09:11:03;;;;;;;13.70;6.70;;;8.60;99.90;;;;;;4964734;28;20448;-59
2021/10/12 09:13:41;;;;;;;12.00;7.77;;;8.60;99.90;;;;;;4951819;28;20942;-59
2021/10/12 09:16:09;;;;;;;17.30;8.13;;;8.60;99.90;;;;;;4950788;28;20735;-59
2021/10/12 09:18:50;;;;;;;14.63;7.87;;;8.60;99.90;;;;;;4953036;28;20434;-59
2021/10/12 09:21:27;;;;;;;10.27;6.10;;;8.60;99.90;;;;;;4951910;28;20461;-59
2021/10/12 09:24:10;;;;;;;15.27;6.10;;;8.50;99.90;;;;;;4967316;28;20429;-59
2021/10/12 09:26:45;;;;;;;7.40;5.27;;;8.50;99.90;;;;;;4969979;28;20449;-58
2021/10/12 09:29:18;;;;;;;8.07;5.23;;;8.50;99.90;;;;;;4968768;28;20436;-60
2021/10/12 09:31:45;;;;;;;10.60;5.47;;;8.50;99.90;;;;;;4962231;28;20448;-59
2021/10/12 09:34:13;;;;;;;7.73;5.00;;;8.50;99.90;;;;;;4971218;28;20465;-59
2021/10/12 09:36:49;;;;;;;9.47;5.00;;;8.50;99.90;;;;;;4959774;28;20434;-60
2021/10/12 09:39:28;;;;;;;6.30;4.57;;;8.50;99.90;;;;;;4966604;28;20421;-59
2021/10/12 09:41:56;;;;;;;11.70;4.97;;;8.50;99.90;;;;;;4954684;28;20894;-59
2021/10/12 09:44:22;;;;;;;11.60;5.30;;;8.60;99.90;;;;;;4976968;28;20977;-59
2021/10/12 09:46:50;;;;;;;7.87;4.10;;;8.60;99.90;;;;;;4966490;28;20445;-59
2021/10/12 09:49:17;;;;;;;7.77;3.70;;;8.60;99.90;;;;;;4969544;28;20413;-60
2021/10/12 09:52:00;;;;;;;6.37;4.43;;;8.60;99.90;;;;;;4972817;28;20455;-60
2021/10/12 09:54:30;;;;;;;4.57;3.20;;;8.60;99.90;;;;;;4966086;28;20471;-61
2021/10/12 09:56:57;;;;;;;5.70;3.77;;;8.60;99.90;;;;;;4960348;28;22496;-62
2021/10/12 09:59:23;;;;;;;5.87;3.70;;;8.70;99.90;;;;;;4957078;28;20930;-63
2021/10/12 10:01:49;;;;;;;6.07;3.70;;;8.70;99.90;;;;;;4965686;28;20467;-62
2021/10/12 10:04:19;;;;;;;4.43;3.67;;;8.70;99.90;;;;;;4961459;28;20569;-62
2021/10/12 10:06:50;;;;;;;8.07;4.80;;;8.70;99.90;;;;;;4962599;28;20425;-62
2021/10/12 10:09:21;;;;;;;11.50;5.87;;;8.80;99.90;;;;;;4959292;28;20529;-63
2021/10/12 10:11:47;;;;;;;9.77;6.30;;;8.80;99.90;;;;;;4960588;28;20815;-63
2021/10/12 10:14:15;;;;;;;9.17;5.50;;;8.80;99.90;;;;;;4964533;28;20417;-62
2021/10/12 10:16:53;;;;;;;15.47;6.30;;;8.80;99.90;;;;;;4957119;28;20430;-63
2021/10/12 10:19:28;;;;;;;10.73;5.87;;;8.80;99.90;;;;;;4982894;28;20437;-63
2021/10/12 10:21:54;;;;;;;10.70;5.53;;;8.80;99.90;;;;;;4961558;28;20654;-63
2021/10/12 10:24:59;;;;;;;11.37;6.30;;;8.80;99.90;;;;;;4955669;28;21055;-64
2021/10/12 10:27:35;;;;;;;9.30;5.40;;;8.80;99.90;;;;;;4935858;29;20175;-64
2021/10/12 10:30:25;;;;;;;6.87;4.80;;;8.80;99.90;;;;;;4923870;29;20437;-63
2021/10/12 10:32:54;;;;;;;5.97;4.33;;;8.80;99.90;;;;;;4950781;28;20452;-63
2021/10/12 10:35:42;;;;;;;6.97;4.10;;;8.70;99.90;;;;;;4973308;28;20410;-63
2021/10/12 10:38:20;;;;;;;9.90;3.90;;;8.70;99.90;;;;;;4968614;28;20510;-62
2021/10/12 10:41:07;;;;;;;6.83;4.37;;;8.80;99.90;;;;;;4968563;28;20523;-62
2021/10/12 10:43:54;;;;;;;9.60;4.37;;;8.90;99.90;;;;;;4946112;28;20419;-64
2021/10/12 10:46:31;;;;;;;8.00;4.70;;;8.90;99.90;;;;;;4966252;28;20436;-62
2021/10/12 10:49:21;;;;;;;9.23;4.40;;;8.90;99.90;;;;;;4961578;28;20489;-62
2021/10/12 10:52:16;;;;;;;6.90;4.70;;;9.00;99.90;;;;;;4968698;28;20466;-61
2021/10/12 10:54:45;;;;;;;6.43;4.47;;;9.00;99.90;;;;;;4965435;28;20441;-61
2021/10/12 10:57:11;;;;;;;8.17;4.90;;;9.00;99.90;;;;;;4971343;28;20513;-61
2021/10/12 10:59:37;;;;;;;7.03;5.10;;;9.10;99.90;;;;;;4972231;28;20425;-61
2021/10/12 11:02:23;;;;;;;9.53;4.90;;;9.10;99.90;;;;;;4965041;28;20484;-61
2021/10/12 11:04:49;;;;;;;16.13;5.07;;;9.10;99.90;;;;;;4966948;28;20179;-61
2021/10/12 11:07:22;;;;;;;8.83;4.77;;;9.20;99.90;;;;;;4972715;28;20430;-61
2021/10/12 11:09:49;;;;;;;9.53;4.50;;;9.20;99.90;;;;;;4963653;28;20902;-61
2021/10/12 11:12:41;;;;;;;7.50;4.50;;;9.30;99.90;;;;;;4966731;28;20453;-61
2021/10/12 11:15:08;;;;;;;6.43;4.30;;;9.30;99.90;;;;;;4959517;28;20472;-60
2021/10/12 11:17:34;;;;;;;10.00;4.67;;;9.30;99.90;;;;;;4961814;28;20802;-61
2021/10/12 11:20:09;;;;;;;8.10;4.90;;;9.30;99.90;;;;;;4962329;28;20938;-61
2021/10/12 11:22:41;;;;;;;7.00;5.00;;;9.30;99.90;;;;;;4958535;28;20453;-61
2021/10/12 11:25:07;;;;;;;10.20;6.07;;;9.30;99.90;;;;;;4968030;28;21010;-60
2021/10/12 11:27:46;;;;;;;8.23;5.13;;;9.30;99.90;;;;;;4961916;28;20980;-61
2021/10/12 11:30:14;;;;;;;13.33;5.00;;;9.30;99.90;;;;;;4966761;28;20457;-61
2021/10/12 11:32:41;;;;;;;10.73;5.10;;;9.30;99.90;;;;;;4967310;28;20476;-61
2021/10/12 11:35:09;;;;;;;7.80;4.30;;;9.30;99.90;;;;;;4961981;28;20548;-61
2021/10/12 11:37:35;;;;;;;9.80;5.73;;;9.30;99.90;;;;;;4962769;28;20945;-61
2021/10/12 11:40:17;;;;;;;10.30;5.50;;;9.20;99.90;;;;;;4965826;28;20426;-62
2021/10/12 11:42:44;;;;;;;11.30;5.43;;;9.20;99.90;;;;;;4955988;28;20214;-61
2021/10/12 11:45:10;;;;;;;19.60;6.70;;;9.20;99.90;;;;;;4963237;28;20906;-62
2021/10/12 11:47:36;;;;;;;13.20;5.70;;;9.10;99.90;;;;;;4962983;28;20422;-61
2021/10/12 11:50:12;;;;;;;10.77;6.50;;;9.10;99.90;;;;;;4970178;28;20950;-64
2021/10/12 11:52:38;;;;;;;12.23;7.33;;;9.10;99.90;;;;;;4969090;28;20190;-60
2021/10/12 11:55:09;;;;;;;16.47;7.40;;;9.00;99.90;;;;;;4968513;28;20420;-61
2021/10/12 11:57:35;;;;;;;12.43;7.60;;;9.00;99.90;;;;;;4971185;28;20422;-61
2021/10/12 12:00:00;;;;;;;20.03;7.20;;;9.00;99.90;;;;;;4959101;28;20815;-62
2021/10/12 12:02:30;;;;;;;19.00;9.93;;;9.00;99.90;;;;;;4957777;28;20457;-61
2021/10/12 12:04:59;;;;;;;15.50;7.93;;;9.00;99.90;;;;;;4965021;28;20602;-62
2021/10/12 12:07:32;;;;;;;17.60;9.60;;;9.00;99.90;;;;;;4958104;28;20488;-62
2021/10/12 12:09:58;;;;;;;15.80;8.30;;;9.20;99.90;;;;;;4957679;28;20426;-61
2021/10/12 12:12:24;;;;;;;18.50;8.80;;;9.30;99.90;;;;;;4957961;28;20841;-60
2021/10/12 12:14:51;;;;;;;12.60;8.47;;;9.30;99.90;;;;;;4958820;28;20529;-60
2021/10/12 12:17:27;;;;;;;11.50;7.13;;;9.40;99.90;;;;;;4956713;28;20189;-61
2021/10/12 12:19:54;;;;;;;10.13;6.80;;;9.40;99.90;;;;;;4961897;28;20449;-59
2021/10/12 12:22:28;;;;;;;17.70;7.47;;;9.40;99.90;;;;;;4958413;28;20981;-61
2021/10/12 12:24:57;;;;;;;12.60;6.47;;;9.30;99.90;;;;;;4952253;29;20409;-61
2021/10/12 12:27:25;;;;;;;11.23;6.30;;;9.30;99.90;;;;;;4951815;29;20629;-61
2021/10/12 12:30:07;;;;;;;15.77;7.20;;;9.20;99.90;;;;;;4953653;28;20827;-61
2021/10/12 12:32:34;;;;;;;19.63;8.80;;;9.20;99.90;;;;;;4961559;28;20433;-61
2021/10/12 12:35:04;;;;;;;16.20;8.00;;;9.20;99.90;;;;;;4969363;28;20425;-61
2021/10/12 12:37:30;;;;;;;13.97;7.10;;;9.10;99.90;;;;;;4969810;28;20452;-61
2021/10/12 12:39:55;;;;;;;13.47;7.97;;;9.10;99.90;;;;;;4953885;28;20508;-61
2021/10/12 12:42:28;;;;;;;14.40;7.50;;;9.10;99.90;;;;;;4957347;28;20187;-61
2021/10/12 12:45:12;;;;;;;9.73;6.23;;;9.00;99.90;;;;;;4971929;28;20177;-62
2021/10/12 12:47:38;;;;;;;10.93;5.90;;;9.00;99.90;;;;;;4965124;28;20409;-61
2021/10/12 12:50:11;;;;;;;12.87;6.33;;;9.00;99.90;;;;;;4962465;28;20500;-61
2021/10/12 12:52:37;;;;;;;10.60;6.27;;;9.00;99.90;;;;;;4964026;28;20186;-61